ミラノ/マルペンサ の空港の天気 - METARとTAF

ミラノ・マルペンサ国際空港 ( LIMC / MXP ) - イタリア ミラノ
飛行場実況気象(Metar)
観測時間04/25 18:20 CEST (04/25 16:20 UTC)
風向・風速南南東 4m/s
視程10km以上
天気現象
全天の8割程度の雲 雲底高度 1220m
気温17℃
湿度55%
気圧1009hPa
METARLIMC 251620Z 16007KT 9999 BKN040 17/08 Q1009 NOSIG
過去の天気等 Google飛行場航空写真 Wunderground天気予報

過去48時間のMETAR

飛行場予報(TAF)
発表時間: 4/25 13:00 CEST (4/25 11:00 UTC)
予報対象時間: 25日14時 CEST ~ 26日20時 CEST
風向・風速不定 3m/s
視程10km以上
全天の4割程度の雲 雲底高度 760m
全天の8割程度の雲 雲底高度 1,830m
25日23時 CEST ~ 26日1時 CEST に徐々に
視程4,000m
天気現象
TAF LIMC 251100Z 2512/2618 VRB05KT 9999 SCT025 BKN060
BECMG 2521/2523 4000 RA